Time;durP1;ratioP1;P1;durP2;ratioP2;P2;SDS_P1;SDS_P2;PMS_P1;PMS_P2;Temp;Humidity;BMP_temperature;BMP_pressure;BME280_temperature;BME280_humidity;BME280_pressure;Samples;Min_cycle;Max_cycle;Signal;HPM_P1;HPM_P2
2023/06/13 00:00:15;;;;;;;5.77;3.13;;;;;;;;;;8318466;28;20025;-62
2023/06/13 00:04:23;;;;;;;3.43;3.13;;;;;;;;;;8319346;28;20025;-62
2023/06/13 00:08:24;;;;;;;5.72;3.45;;;;;;;;;;8320086;28;20306;-62
2023/06/13 00:12:25;;;;;;;3.67;3.20;;;;;;;;;;8317553;28;20030;-62
2023/06/13 00:16:26;;;;;;;5.00;3.20;;;;;;;;;;8319467;28;20560;-62
2023/06/13 00:20:26;;;;;;;5.50;3.25;;;;;;;;;;8318143;28;20029;-62
2023/06/13 00:24:26;;;;;;;3.35;3.03;;;;;;;;;;8318420;28;20036;-62
2023/06/13 00:28:27;;;;;;;5.40;3.35;;;;;;;;;;8319262;28;20572;-62
2023/06/13 00:32:27;;;;;;;3.63;3.33;;;;;;;;;;8318912;28;20033;-62
2023/06/13 00:36:27;;;;;;;3.55;3.20;;;;;;;;;;8318630;28;20941;-62
2023/06/13 00:40:27;;;;;;;4.70;3.33;;;;;;;;;;8317569;28;20033;-64
2023/06/13 00:44:28;;;;;;;4.22;3.58;;;;;;;;;;8317033;28;20025;-62
2023/06/13 00:48:28;;;;;;;5.65;3.10;;;;;;;;;;8317780;28;20040;-62
2023/06/13 00:52:28;;;;;;;5.57;3.63;;;;;;;;;;8307780;28;20547;-62
2023/06/13 00:56:29;;;;;;;3.92;3.45;;;;;;;;;;8314340;28;20068;-62
2023/06/13 01:00:30;;;;;;;4.22;3.10;;;;;;;;;;8317730;28;20055;-62
2023/06/13 01:04:34;;;;;;;8.68;3.78;;;;;;;;;;8316715;28;20108;-62
2023/06/13 01:08:37;;;;;;;4.07;3.40;;;;;;;;;;8316338;28;20374;-62
2023/06/13 01:12:45;;;;;;;5.30;3.70;;;;;;;;;;8316530;28;20029;-62
2023/06/13 01:16:47;;;;;;;4.28;3.75;;;;;;;;;;8315291;28;20193;-62
2023/06/13 01:20:48;;;;;;;3.80;3.40;;;;;;;;;;8318014;28;20089;-62
2023/06/13 01:24:54;;;;;;;5.05;3.35;;;;;;;;;;8316630;28;20134;-62
2023/06/13 01:28:55;;;;;;;3.50;3.20;;;;;;;;;;8317042;28;20032;-62
2023/06/13 01:32:55;;;;;;;4.43;3.53;;;;;;;;;;8317794;28;20381;-62
2023/06/13 01:36:56;;;;;;;3.92;3.13;;;;;;;;;;8314531;28;20021;-62
2023/06/13 01:40:57;;;;;;;3.87;3.20;;;;;;;;;;8316412;28;20060;-62
2023/06/13 01:44:57;;;;;;;4.50;3.45;;;;;;;;;;8313029;28;20013;-62
2023/06/13 01:49:11;;;;;;;4.38;3.50;;;;;;;;;;8314589;28;20037;-62
2023/06/13 01:53:28;;;;;;;4.15;3.10;;;;;;;;;;8316117;28;20464;-62
2023/06/13 01:57:32;;;;;;;3.30;3.00;;;;;;;;;;8314459;28;20036;-62
2023/06/13 02:01:32;;;;;;;;;;;;;;;;;;8314916;28;20041;-62
2023/06/13 02:05:33;;;;;;;3.58;3.28;;;;;;;;;;8317248;28;20035;-62
2023/06/13 02:09:33;;;;;;;4.57;3.20;;;;;;;;;;8314583;28;20071;-62
2023/06/13 02:13:33;;;;;;;3.75;3.35;;;;;;;;;;8318058;28;20890;-62
2023/06/13 02:17:34;;;;;;;4.20;3.50;;;;;;;;;;8313936;28;20086;-62
2023/06/13 02:21:35;;;;;;;5.00;3.58;;;;;;;;;;8317213;28;21616;-62
2023/06/13 02:25:36;;;;;;;3.42;3.13;;;;;;;;;;8316354;28;20040;-62
2023/06/13 02:29:36;;;;;;;4.35;3.50;;;;;;;;;;8313692;28;20123;-62
2023/06/13 02:33:38;;;;;;;3.58;3.03;;;;;;;;;;8322195;28;20032;-62
2023/06/13 02:37:38;;;;;;;4.45;3.50;;;;;;;;;;8323226;28;20040;-61
2023/06/13 02:41:38;;;;;;;3.37;3.07;;;;;;;;;;8318922;28;20035;-61
2023/06/13 02:45:38;;;;;;;4.45;3.22;;;;;;;;;;8322996;28;20151;-61
2023/06/13 02:49:38;;;;;;;4.75;3.50;;;;;;;;;;8322492;28;20556;-62
2023/06/13 02:53:39;;;;;;;3.55;2.80;;;;;;;;;;8321305;28;20052;-61
2023/06/13 02:57:39;;;;;;;3.78;3.13;;;;;;;;;;8321813;28;20027;-62
2023/06/13 03:01:39;;;;;;;3.95;3.28;;;;;;;;;;8319045;28;20139;-61
2023/06/13 03:05:42;;;;;;;3.38;3.05;;;;;;;;;;8322279;28;20028;-61
2023/06/13 03:09:42;;;;;;;4.28;3.17;;;;;;;;;;8320149;28;20029;-62
2023/06/13 03:13:42;;;;;;;6.95;3.20;;;;;;;;;;8321028;28;20025;-61
2023/06/13 03:17:43;;;;;;;3.00;2.70;;;;;;;;;;8319410;28;21088;-62
2023/06/13 03:21:43;;;;;;;4.47;3.00;;;;;;;;;;8321353;28;20029;-62
2023/06/13 03:25:44;;;;;;;3.13;2.80;;;;;;;;;;8318343;28;20032;-62
2023/06/13 03:29:47;;;;;;;3.38;2.92;;;;;;;;;;8322084;28;20036;-62
2023/06/13 03:33:47;;;;;;;3.13;2.83;;;;;;;;;;8313409;28;20045;-62
2023/06/13 03:37:47;;;;;;;3.35;2.90;;;;;;;;;;8321880;28;20828;-62
2023/06/13 03:41:47;;;;;;;5.22;2.80;;;;;;;;;;8317522;28;20036;-62
2023/06/13 03:45:48;;;;;;;9.63;3.22;;;;;;;;;;8316659;28;20095;-62
2023/06/13 03:49:48;;;;;;;7.13;3.10;;;;;;;;;;8319917;28;20028;-62
2023/06/13 03:53:48;;;;;;;4.05;3.00;;;;;;;;;;8319457;28;20414;-62
2023/06/13 03:57:48;;;;;;;7.90;2.93;;;;;;;;;;8317590;28;20013;-62
2023/06/13 04:01:49;;;;;;;4.25;2.97;;;;;;;;;;8314485;28;20268;-62
2023/06/13 04:05:49;;;;;;;2.90;2.70;;;;;;;;;;8322376;28;20032;-62
2023/06/13 04:09:49;;;;;;;3.80;2.90;;;;;;;;;;8318012;28;20025;-62
2023/06/13 04:13:50;;;;;;;4.00;2.75;;;;;;;;;;8317854;28;20024;-62
2023/06/13 04:17:52;;;;;;;3.08;2.47;;;;;;;;;;8319384;28;20515;-62
2023/06/13 04:21:52;;;;;;;3.00;2.70;;;;;;;;;;8320190;28;20032;-62
2023/06/13 04:25:53;;;;;;;5.23;3.20;;;;;;;;;;8319993;28;20120;-62
2023/06/13 04:29:53;;;;;;;3.58;2.88;;;;;;;;;;8316345;28;20138;-62
2023/06/13 04:33:55;;;;;;;4.47;3.03;;;;;;;;;;8317256;28;20036;-62
2023/06/13 04:37:56;;;;;;;5.10;3.10;;;;;;;;;;8321221;28;20028;-62
2023/06/13 04:41:56;;;;;;;3.42;2.78;;;;;;;;;;8317378;28;20025;-62
2023/06/13 04:45:56;;;;;;;4.80;3.22;;;;;;;;;;8317159;28;20041;-62
2023/06/13 04:50:00;;;;;;;5.23;3.33;;;;;;;;;;8317466;28;20032;-62
2023/06/13 04:54:00;;;;;;;6.38;3.15;;;;;;;;;;8311454;28;20523;-62
2023/06/13 04:58:01;;;;;;;6.47;3.50;;;;;;;;;;8312194;28;20099;-62
2023/06/13 05:02:01;;;;;;;6.75;3.10;;;;;;;;;;8312717;28;20039;-62
2023/06/13 05:06:01;;;;;;;6.90;3.40;;;;;;;;;;8317722;28;20090;-62
2023/06/13 05:10:02;;;;;;;4.45;3.00;;;;;;;;;;8313090;28;20050;-62
2023/06/13 05:14:02;;;;;;;5.78;3.10;;;;;;;;;;8308401;28;20623;-62
2023/06/13 05:18:06;;;;;;;9.07;3.30;;;;;;;;;;8314049;28;20701;-62
2023/06/13 05:22:06;;;;;;;11.70;3.25;;;;;;;;;;8313707;28;20032;-62
2023/06/13 05:26:06;;;;;;;4.77;3.30;;;;;;;;;;8317630;28;20723;-62
2023/06/13 05:30:09;;;;;;;5.30;3.08;;;;;;;;;;8312014;28;20740;-62
2023/06/13 05:34:09;;;;;;;10.20;3.43;;;;;;;;;;8313537;28;20425;-62
2023/06/13 05:38:11;;;;;;;3.95;2.70;;;;;;;;;;8314634;28;20044;-62
2023/06/13 05:42:11;;;;;;;6.88;2.80;;;;;;;;;;8315895;28;20134;-63
2023/06/13 05:46:13;;;;;;;9.30;3.22;;;;;;;;;;8316909;28;20048;-62
2023/06/13 05:50:14;;;;;;;7.55;3.30;;;;;;;;;;8315987;28;20080;-62
2023/06/13 05:54:14;;;;;;;8.73;3.20;;;;;;;;;;8311322;28;20051;-62
2023/06/13 05:58:14;;;;;;;4.78;2.92;;;;;;;;;;8306808;28;20389;-62
2023/06/13 06:02:15;;;;;;;4.85;2.90;;;;;;;;;;8306705;28;20758;-62
2023/06/13 06:06:15;;;;;;;3.27;2.70;;;;;;;;;;8306738;28;20498;-62
2023/06/13 06:10:15;;;;;;;6.70;3.03;;;;;;;;;;8309916;28;20025;-62
2023/06/13 06:14:15;;;;;;;8.10;3.40;;;;;;;;;;8306475;28;20240;-62
2023/06/13 06:18:18;;;;;;;8.95;3.10;;;;;;;;;;8309640;28;20037;-62
2023/06/13 06:22:18;;;;;;;;;;;;;;;;;;8309344;28;20086;-62
2023/06/13 06:26:20;;;;;;;8.77;3.10;;;;;;;;;;8307472;28;20424;-61
2023/06/13 06:30:20;;;;;;;4.38;2.90;;;;;;;;;;8305036;28;20580;-62
2023/06/13 06:34:20;;;;;;;6.47;3.00;;;;;;;;;;8306982;28;20029;-61
2023/06/13 06:38:20;;;;;;;5.38;2.83;;;;;;;;;;8307899;28;20338;-61
2023/06/13 06:42:20;;;;;;;5.30;2.90;;;;;;;;;;8307180;28;20758;-62
2023/06/13 06:46:20;;;;;;;6.68;2.97;;;;;;;;;;8304986;28;20154;-61
2023/06/13 06:50:21;;;;;;;6.07;3.03;;;;;;;;;;8308390;28;20966;-61
2023/06/13 06:54:21;;;;;;;3.97;2.90;;;;;;;;;;8306211;28;20029;-61
2023/06/13 06:58:21;;;;;;;6.25;2.90;;;;;;;;;;8304365;28;20374;-61
2023/06/13 07:02:21;;;;;;;5.75;2.80;;;;;;;;;;8304736;28;20179;-61
2023/06/13 07:06:22;;;;;;;5.50;2.55;;;;;;;;;;8307918;28;20021;-61
2023/06/13 07:10:22;;;;;;;9.40;2.80;;;;;;;;;;8314596;28;20028;-61
2023/06/13 07:14:24;;;;;;;7.95;3.00;;;;;;;;;;8312578;28;20540;-61
2023/06/13 07:18:24;;;;;;;6.70;2.38;;;;;;;;;;8314171;28;20045;-61
2023/06/13 07:22:25;;;;;;;8.80;2.83;;;;;;;;;;8315643;28;20148;-61
2023/06/13 07:26:26;;;;;;;8.60;2.53;;;;;;;;;;8313088;28;20598;-61
2023/06/13 07:30:27;;;;;;;5.50;2.80;;;;;;;;;;8313567;28;20501;-61
2023/06/13 07:34:27;;;;;;;4.22;2.30;;;;;;;;;;8313004;28;20123;-61
2023/06/13 07:38:27;;;;;;;9.53;2.83;;;;;;;;;;8311786;28;20139;-61
2023/06/13 07:42:27;;;;;;;5.88;2.80;;;;;;;;;;8314391;28;20067;-61
2023/06/13 07:46:27;;;;;;;8.88;2.83;;;;;;;;;;8312027;28;20033;-61
2023/06/13 07:50:28;;;;;;;7.60;2.70;;;;;;;;;;8307564;28;20133;-61
2023/06/13 07:54:30;;;;;;;7.20;2.60;;;;;;;;;;8313027;28;20092;-61
2023/06/13 07:58:30;;;;;;;7.20;2.40;;;;;;;;;;8311767;28;20271;-61
2023/06/13 08:02:34;;;;;;;5.40;2.60;;;;;;;;;;8304990;28;20569;-62
2023/06/13 08:06:34;;;;;;;4.57;2.67;;;;;;;;;;8312414;28;20082;-61
2023/06/13 08:10:34;;;;;;;5.10;2.67;;;;;;;;;;8314506;28;20025;-61
2023/06/13 08:24:00;;;;;;;11.20;3.03;;;;;;;;;;8290017;28;20036;-61
2023/06/13 08:28:26;;;;;;;3.78;2.30;;;;;;;;;;8306968;28;20021;-61
2023/06/13 08:32:39;;;;;;;4.07;2.33;;;;;;;;;;8312803;28;20076;-61
2023/06/13 08:36:39;;;;;;;;;;;;;;;;;;8300990;28;20037;-61
2023/06/13 08:40:54;;;;;;;4.65;2.70;;;;;;;;;;8303885;28;19919;-61
2023/06/13 08:45:09;;;;;;;;;;;;;;;;;;8300771;28;20039;-61
2023/06/13 08:49:20;;;;;;;4.72;2.50;;;;;;;;;;8294461;28;20260;-62
2023/06/13 08:53:51;;;;;;;4.60;2.58;;;;;;;;;;8306190;28;20029;-61
2023/06/13 08:58:05;;;;;;;3.13;2.60;;;;;;;;;;8300592;28;20238;-61
2023/06/13 09:02:52;;;;;;;3.60;2.40;;;;;;;;;;8301080;28;20039;-61
2023/06/13 09:06:50;;;;;;;3.05;2.45;;;;;;;;;;8303811;28;20047;-61
2023/06/13 09:11:03;;;;;;;5.63;2.50;;;;;;;;;;8302618;28;20029;-62
2023/06/13 09:15:35;;;;;;;4.90;2.40;;;;;;;;;;8301450;28;20398;-62
2023/06/13 09:19:42;;;;;;;5.63;2.50;;;;;;;;;;8200994;28;21062;-61
2023/06/13 09:23:42;;;;;;;3.15;2.50;;;;;;;;;;8221274;28;20152;-61
2023/06/13 09:28:10;;;;;;;3.67;2.88;;;;;;;;;;8220146;28;20561;-61
2023/06/13 09:32:13;;;;;;;4.28;2.50;;;;;;;;;;8265939;28;20043;-61
2023/06/13 09:46:10;;;;;;;5.55;2.80;;;;;;;;;;8290495;28;20048;-62
2023/06/13 09:50:25;;;;;;;5.90;2.97;;;;;;;;;;8303311;28;20135;-61
2023/06/13 09:54:29;;;;;;;5.65;2.70;;;;;;;;;;8302673;28;20251;-61
2023/06/13 09:58:46;;;;;;;7.05;3.00;;;;;;;;;;8302031;28;20726;-61
2023/06/13 10:03:03;;;;;;;3.28;2.75;;;;;;;;;;8292001;28;20286;-61
2023/06/13 10:07:29;;;;;;;3.78;2.50;;;;;;;;;;8299772;28;20413;-61
2023/06/13 10:11:30;;;;;;;6.97;2.80;;;;;;;;;;8283690;28;20136;-61
2023/06/13 10:16:09;;;;;;;3.15;2.53;;;;;;;;;;8288266;28;20156;-62
2023/06/13 10:20:11;;;;;;;4.93;2.40;;;;;;;;;;8294698;28;20194;-61
2023/06/13 10:28:56;;;;;;;3.00;2.20;;;;;;;;;;8302715;28;20063;-62
2023/06/13 10:38:06;;;;;;;5.15;2.63;;;;;;;;;;8291139;28;20039;-62
2023/06/13 10:42:46;;;;;;;2.38;2.15;;;;;;;;;;8302128;28;20241;-61
2023/06/13 10:47:13;;;;;;;2.85;2.47;;;;;;;;;;8294193;28;20044;-61
2023/06/13 10:51:32;;;;;;;2.80;2.20;;;;;;;;;;8301863;28;20029;-62
2023/06/13 10:55:49;;;;;;;6.35;2.35;;;;;;;;;;8309428;28;20062;-61
2023/06/13 10:59:49;;;;;;;4.10;2.28;;;;;;;;;;8309780;28;20029;-61
2023/06/13 11:04:13;;;;;;;3.35;2.45;;;;;;;;;;8309845;28;20417;-62
2023/06/13 11:08:14;;;;;;;5.78;3.05;;;;;;;;;;8305110;28;20029;-62
2023/06/13 11:12:14;;;;;;;3.08;2.30;;;;;;;;;;8306573;28;20097;-61
2023/06/13 11:16:45;;;;;;;5.33;2.30;;;;;;;;;;8294192;28;20037;-63
2023/06/13 11:21:10;;;;;;;3.95;2.28;;;;;;;;;;8303820;28;20274;-62
2023/06/13 11:25:33;;;;;;;5.90;2.90;;;;;;;;;;8308868;28;20101;-62
2023/06/13 11:29:41;;;;;;;4.57;2.67;;;;;;;;;;8311869;28;20025;-61
2023/06/13 11:34:15;;;;;;;3.67;2.47;;;;;;;;;;8301804;28;20048;-61
2023/06/13 11:42:59;;;;;;;5.07;2.75;;;;;;;;;;8281071;28;20045;-61
2023/06/13 11:51:47;;;;;;;6.35;2.58;;;;;;;;;;8313540;28;20561;-62
2023/06/13 11:56:07;;;;;;;4.18;2.35;;;;;;;;;;8310000;28;20032;-62
2023/06/13 12:00:33;;;;;;;2.58;2.33;;;;;;;;;;8305282;28;20055;-62
2023/06/13 12:04:45;;;;;;;4.35;2.50;;;;;;;;;;8309798;28;20517;-63
2023/06/13 12:13:40;;;;;;;3.97;2.50;;;;;;;;;;8307326;28;20131;-62
2023/06/13 12:18:41;;;;;;;;;;;;;;;;;;;;;
2023/06/13 12:22:57;;;;;;;3.80;2.60;;;;;;;;;;8264704;28;20033;-62
2023/06/13 12:27:17;;;;;;;2.60;2.20;;;;;;;;;;8265153;28;20108;-62
2023/06/13 12:31:27;;;;;;;3.30;2.50;;;;;;;;;;8259196;28;20095;-61
2023/06/13 12:35:29;;;;;;;4.55;2.80;;;;;;;;;;8271532;28;20243;-61
2023/06/13 12:40:07;;;;;;;6.95;2.45;;;;;;;;;;8267238;28;20632;-61
2023/06/13 12:44:07;;;;;;;4.10;2.40;;;;;;;;;;8283748;28;20057;-61
2023/06/13 12:48:37;;;;;;;4.13;2.67;;;;;;;;;;8305258;28;20059;-62
2023/06/13 12:52:54;;;;;;;4.88;2.42;;;;;;;;;;8306146;28;20036;-63
2023/06/13 12:56:59;;;;;;;6.70;2.63;;;;;;;;;;8309203;28;20021;-62
2023/06/13 13:01:34;;;;;;;6.68;2.53;;;;;;;;;;8301277;28;20718;-62
2023/06/13 13:06:13;;;;;;;4.32;2.30;;;;;;;;;;8300432;28;20060;-62
2023/06/13 13:10:13;;;;;;;3.22;2.40;;;;;;;;;;8283372;28;20402;-61
2023/06/13 13:14:57;;;;;;;3.17;2.65;;;;;;;;;;8303803;28;20096;-61
2023/06/13 13:18:54;;;;;;;2.92;2.58;;;;;;;;;;8307314;28;20083;-61
2023/06/13 13:23:06;;;;;;;3.80;2.50;;;;;;;;;;8299979;28;20032;-62
2023/06/13 13:27:26;;;;;;;6.55;2.60;;;;;;;;;;8298474;28;20021;-62
2023/06/13 13:31:26;;;;;;;3.45;2.53;;;;;;;;;;8298755;28;20044;-62
2023/06/13 13:36:10;;;;;;;5.23;2.47;;;;;;;;;;8306988;28;20041;-63
2023/06/13 13:40:23;;;;;;;5.95;2.47;;;;;;;;;;8305082;28;20549;-62
2023/06/13 13:44:23;;;;;;;7.22;2.42;;;;;;;;;;8299189;28;20345;-62
2023/06/13 13:48:23;;;;;;;3.45;2.70;;;;;;;;;;8303348;28;20067;-62
2023/06/13 13:52:53;;;;;;;;;;;;;;;;;;;;;
2023/06/13 13:56:54;;;;;;;5.68;2.40;;;;;;;;;;8301541;28;20120;-62
2023/06/13 14:00:56;;;;;;;3.50;2.53;;;;;;;;;;8290717;28;20067;-62
2023/06/13 14:05:07;;;;;;;6.07;2.47;;;;;;;;;;8301976;28;20736;-62
2023/06/13 14:09:46;;;;;;;3.65;2.47;;;;;;;;;;8295632;28;20130;-62
2023/06/13 14:14:01;;;;;;;4.68;2.40;;;;;;;;;;8311175;28;20032;-62
2023/06/13 14:18:39;;;;;;;2.53;2.30;;;;;;;;;;8314631;28;20409;-62
2023/06/13 14:22:40;;;;;;;2.60;2.40;;;;;;;;;;8310749;28;20590;-62
2023/06/13 14:26:40;;;;;;;6.23;2.40;;;;;;;;;;8321670;28;20078;-62
2023/06/13 14:30:40;;;;;;;7.78;2.30;;;;;;;;;;8319056;28;20182;-63
2023/06/13 14:34:40;;;;;;;8.03;2.30;;;;;;;;;;8316717;28;20038;-63
2023/06/13 14:38:42;;;;;;;3.20;2.60;;;;;;;;;;8321259;28;20573;-62
2023/06/13 14:42:42;;;;;;;4.27;2.33;;;;;;;;;;8320391;28;20558;-62
2023/06/13 14:46:42;;;;;;;3.63;2.38;;;;;;;;;;8318895;28;20535;-63
2023/06/13 14:50:42;;;;;;;4.63;2.30;;;;;;;;;;8317667;28;20074;-62
2023/06/13 14:54:42;;;;;;;3.97;2.40;;;;;;;;;;8314683;28;20017;-63
2023/06/13 14:58:43;;;;;;;4.13;2.30;;;;;;;;;;8317565;28;20025;-62
2023/06/13 15:02:43;;;;;;;3.23;2.30;;;;;;;;;;8314005;28;20098;-63
2023/06/13 15:06:43;;;;;;;4.75;2.25;;;;;;;;;;8319348;28;20136;-62
2023/06/13 15:10:43;;;;;;;3.38;2.22;;;;;;;;;;8318122;28;20593;-62
2023/06/13 15:14:43;;;;;;;3.05;2.20;;;;;;;;;;8322213;28;20040;-62
2023/06/13 15:18:45;;;;;;;4.50;2.53;;;;;;;;;;8325707;28;20147;-62
2023/06/13 15:22:45;;;;;;;2.97;2.27;;;;;;;;;;8324587;28;20028;-62
2023/06/13 15:26:45;;;;;;;3.53;2.40;;;;;;;;;;8321559;28;20028;-62
2023/06/13 15:30:45;;;;;;;4.40;2.28;;;;;;;;;;8318936;28;20919;-62
2023/06/13 15:34:46;;;;;;;5.90;2.70;;;;;;;;;;8318959;28;20064;-62
2023/06/13 15:38:46;;;;;;;3.90;2.50;;;;;;;;;;8315520;28;20036;-62
2023/06/13 15:42:46;;;;;;;5.53;2.25;;;;;;;;;;8317391;28;20279;-62
2023/06/13 15:46:47;;;;;;;2.90;2.55;;;;;;;;;;8308676;28;20112;-63
2023/06/13 15:50:47;;;;;;;5.57;2.35;;;;;;;;;;8310402;28;20652;-63
2023/06/13 15:54:47;;;;;;;3.60;2.35;;;;;;;;;;8312550;28;20029;-63
2023/06/13 15:58:47;;;;;;;3.47;2.60;;;;;;;;;;8316805;28;20021;-63
2023/06/13 16:02:48;;;;;;;3.22;2.33;;;;;;;;;;8311180;28;20436;-62
2023/06/13 16:06:48;;;;;;;4.05;2.40;;;;;;;;;;8314788;28;20855;-63
2023/06/13 16:10:49;;;;;;;3.50;2.42;;;;;;;;;;8310569;28;20025;-63
2023/06/13 16:14:49;;;;;;;4.25;2.50;;;;;;;;;;8301818;28;20309;-62
2023/06/13 16:18:49;;;;;;;4.80;2.60;;;;;;;;;;8312437;28;20573;-62
2023/06/13 16:23:17;;;;;;;5.57;2.50;;;;;;;;;;8303689;28;20047;-63
2023/06/13 16:27:30;;;;;;;5.03;3.00;;;;;;;;;;8303295;28;20116;-63
2023/06/13 16:31:51;;;;;;;2.92;2.60;;;;;;;;;;8293323;28;20356;-62
2023/06/13 16:35:59;;;;;;;3.05;2.42;;;;;;;;;;8304391;28;20214;-63
2023/06/13 16:39:59;;;;;;;4.97;2.53;;;;;;;;;;8305662;28;20036;-63
2023/06/13 16:44:09;;;;;;;6.67;2.30;;;;;;;;;;8306460;28;20029;-63
2023/06/13 16:48:33;;;;;;;3.83;2.58;;;;;;;;;;8308056;28;20490;-62
2023/06/13 16:52:50;;;;;;;2.85;2.60;;;;;;;;;;8305250;28;20025;-62
2023/06/13 16:57:13;;;;;;;2.47;2.22;;;;;;;;;;8303441;28;20361;-62
2023/06/13 17:01:29;;;;;;;6.90;2.63;;;;;;;;;;8289646;28;20060;-62
2023/06/13 17:06:00;;;;;;;3.58;2.50;;;;;;;;;;8303975;28;20032;-62
2023/06/13 17:10:00;;;;;;;3.95;2.50;;;;;;;;;;8304849;28;20027;-62
2023/06/13 17:14:11;;;;;;;2.50;2.30;;;;;;;;;;8304321;28;20025;-62
2023/06/13 17:18:11;;;;;;;3.42;2.30;;;;;;;;;;8311011;28;20163;-62
2023/06/13 17:22:37;;;;;;;5.43;2.42;;;;;;;;;;8303642;28;20489;-62
2023/06/13 17:26:47;;;;;;;4.30;2.63;;;;;;;;;;8303044;28;20033;-63
2023/06/13 17:31:04;;;;;;;3.67;2.58;;;;;;;;;;8292739;28;20083;-62
2023/06/13 17:35:21;;;;;;;7.78;2.70;;;;;;;;;;8302909;28;20067;-62
2023/06/13 17:39:35;;;;;;;4.38;2.58;;;;;;;;;;8308559;28;20038;-62
2023/06/13 17:43:54;;;;;;;4.68;2.58;;;;;;;;;;8305436;28;20457;-62
2023/06/13 17:48:03;;;;;;;4.07;2.50;;;;;;;;;;8293636;28;20040;-62
2023/06/13 17:52:03;;;;;;;3.70;2.50;;;;;;;;;;8301849;28;20520;-62
2023/06/13 17:56:41;;;;;;;3.03;2.70;;;;;;;;;;8303301;28;20056;-63
2023/06/13 18:01:03;;;;;;;2.50;2.30;;;;;;;;;;8286678;28;20037;-63
2023/06/13 18:05:04;;;;;;;4.20;2.40;;;;;;;;;;8301711;28;20025;-62
2023/06/13 18:09:21;;;;;;;3.50;2.65;;;;;;;;;;8302794;28;20112;-62
2023/06/13 18:13:31;;;;;;;3.78;2.47;;;;;;;;;;8302794;28;20039;-63
2023/06/13 18:17:53;;;;;;;2.97;2.45;;;;;;;;;;8304664;28;20549;-62
2023/06/13 18:21:53;;;;;;;2.85;2.58;;;;;;;;;;8306527;28;20029;-62
2023/06/13 18:26:03;;;;;;;2.88;2.45;;;;;;;;;;8302115;28;20179;-62
2023/06/13 18:30:04;;;;;;;6.07;2.30;;;;;;;;;;8300654;28;20348;-62
2023/06/13 18:34:12;;;;;;;2.40;2.20;;;;;;;;;;8304753;28;20118;-62
2023/06/13 18:38:41;;;;;;;4.68;2.50;;;;;;;;;;8300835;28;20497;-62
2023/06/13 18:42:54;;;;;;;4.03;2.30;;;;;;;;;;8303462;28;20448;-62
2023/06/13 18:46:54;;;;;;;2.38;2.17;;;;;;;;;;8304451;28;20675;-62
2023/06/13 18:50:54;;;;;;;3.05;2.40;;;;;;;;;;8296421;28;20136;-62
2023/06/13 18:55:02;;;;;;;3.57;2.40;;;;;;;;;;8297503;28;20040;-62
2023/06/13 18:59:47;;;;;;;5.72;2.50;;;;;;;;;;8299599;28;20078;-62
2023/06/13 19:04:03;;;;;;;3.65;2.22;;;;;;;;;;8289489;28;20059;-62
2023/06/13 19:08:03;;;;;;;3.85;2.45;;;;;;;;;;8298275;28;20185;-62
2023/06/13 19:12:21;;;;;;;4.40;2.50;;;;;;;;;;8307883;28;20032;-63
2023/06/13 19:16:31;;;;;;;2.75;2.13;;;;;;;;;;8300016;28;20037;-62
2023/06/13 19:20:57;;;;;;;2.88;2.67;;;;;;;;;;8298197;28;20029;-62
2023/06/13 19:25:14;;;;;;;6.65;2.45;;;;;;;;;;8306554;28;20385;-62
2023/06/13 19:29:22;;;;;;;5.03;2.50;;;;;;;;;;8305685;28;20017;-63
2023/06/13 19:33:31;;;;;;;7.70;2.40;;;;;;;;;;8318912;28;20067;-62
2023/06/13 19:38:08;;;;;;;3.97;2.58;;;;;;;;;;8305171;28;20116;-62
2023/06/13 19:42:09;;;;;;;6.93;2.58;;;;;;;;;;8303769;28;20029;-62
2023/06/13 19:46:09;;;;;;;7.35;2.33;;;;;;;;;;8312134;28;20040;-62
2023/06/13 19:50:21;;;;;;;5.67;2.70;;;;;;;;;;8314926;28;20024;-62
2023/06/13 19:54:44;;;;;;;4.75;2.58;;;;;;;;;;8313068;28;20790;-62
2023/06/13 19:59:21;;;;;;;3.60;2.67;;;;;;;;;;8313102;28;20021;-62
2023/06/13 20:03:22;;;;;;;5.40;2.67;;;;;;;;;;8295147;28;20057;-62
2023/06/13 20:07:27;;;;;;;3.78;2.13;;;;;;;;;;8311928;28;20221;-62
2023/06/13 20:11:36;;;;;;;5.05;2.33;;;;;;;;;;8307924;28;20128;-62
2023/06/13 20:15:41;;;;;;;4.78;2.50;;;;;;;;;;8300683;28;20075;-62
2023/06/13 20:19:42;;;;;;;6.88;2.67;;;;;;;;;;8309856;28;20100;-62
2023/06/13 20:23:45;;;;;;;5.38;2.30;;;;;;;;;;8309921;28;20417;-63
2023/06/13 20:27:49;;;;;;;3.33;2.40;;;;;;;;;;8307449;28;20557;-62
2023/06/13 20:31:57;;;;;;;3.65;2.17;;;;;;;;;;8312368;28;20032;-62
2023/06/13 20:36:02;;;;;;;8.73;2.60;;;;;;;;;;8314370;28;20033;-63
2023/06/13 20:40:07;;;;;;;3.50;2.53;;;;;;;;;;8311505;28;20510;-62
2023/06/13 20:44:10;;;;;;;4.07;2.22;;;;;;;;;;8308805;28;20364;-62
2023/06/13 20:48:16;;;;;;;3.88;2.60;;;;;;;;;;8313438;28;20041;-62
2023/06/13 20:52:17;;;;;;;5.65;2.65;;;;;;;;;;8313182;28;20025;-62
2023/06/13 20:56:23;;;;;;;3.25;2.47;;;;;;;;;;8311305;28;20398;-62
2023/06/13 21:00:26;;;;;;;4.43;2.40;;;;;;;;;;8306496;28;20045;-62
2023/06/13 21:04:26;;;;;;;2.85;2.47;;;;;;;;;;8315344;28;20685;-63
2023/06/13 21:08:26;;;;;;;4.68;2.60;;;;;;;;;;8306700;28;20147;-63
2023/06/13 21:12:28;;;;;;;3.00;2.60;;;;;;;;;;8315930;28;20484;-62
2023/06/13 21:16:30;;;;;;;6.03;2.47;;;;;;;;;;8301908;28;20860;-62
2023/06/13 21:20:37;;;;;;;3.20;2.65;;;;;;;;;;8313163;28;20562;-62
2023/06/13 21:24:39;;;;;;;2.97;2.67;;;;;;;;;;8307863;28;20417;-62
2023/06/13 21:28:41;;;;;;;4.40;2.58;;;;;;;;;;8304584;28;20021;-62
2023/06/13 21:32:45;;;;;;;3.53;2.58;;;;;;;;;;8300748;28;20131;-62
2023/06/13 21:36:49;;;;;;;5.57;2.50;;;;;;;;;;8306326;28;20025;-63
2023/06/13 21:40:50;;;;;;;5.07;2.72;;;;;;;;;;8307944;28;20037;-62
2023/06/13 21:44:50;;;;;;;3.08;2.70;;;;;;;;;;8311517;28;20021;-62
2023/06/13 21:48:50;;;;;;;4.15;2.72;;;;;;;;;;8314463;28;20036;-62
2023/06/13 21:52:51;;;;;;;3.20;2.58;;;;;;;;;;8318398;28;20040;-62
2023/06/13 21:56:52;;;;;;;6.85;2.75;;;;;;;;;;8317649;28;20162;-62
2023/06/13 22:00:52;;;;;;;3.47;2.60;;;;;;;;;;8313450;28;20056;-63
2023/06/13 22:04:53;;;;;;;3.90;2.85;;;;;;;;;;8316414;28;20029;-62
2023/06/13 22:08:53;;;;;;;3.70;2.60;;;;;;;;;;8313879;28;20029;-62
2023/06/13 22:12:56;;;;;;;5.80;2.60;;;;;;;;;;8314803;28;20114;-62
2023/06/13 22:16:56;;;;;;;6.00;3.03;;;;;;;;;;8316043;28;20594;-62
2023/06/13 22:20:58;;;;;;;5.18;2.58;;;;;;;;;;8316437;28;20047;-62
2023/06/13 22:24:58;;;;;;;3.25;2.50;;;;;;;;;;8316444;28;20033;-62
2023/06/13 22:28:59;;;;;;;3.00;2.67;;;;;;;;;;8312840;28;20735;-62
2023/06/13 22:33:00;;;;;;;4.40;2.83;;;;;;;;;;8319040;28;20516;-62
2023/06/13 22:37:01;;;;;;;4.45;3.20;;;;;;;;;;8310288;28;20387;-62
2023/06/13 22:41:06;;;;;;;7.80;3.00;;;;;;;;;;8318718;28;20033;-62
2023/06/13 22:45:08;;;;;;;4.00;2.88;;;;;;;;;;8317962;28;20067;-62
2023/06/13 22:49:09;;;;;;;5.72;2.92;;;;;;;;;;8322848;28;21216;-62
2023/06/13 22:53:09;;;;;;;5.30;3.03;;;;;;;;;;8324720;28;20040;-61
2023/06/13 22:57:10;;;;;;;4.05;2.75;;;;;;;;;;8325391;28;20025;-62
2023/06/13 23:01:12;;;;;;;6.13;2.78;;;;;;;;;;8323243;28;20122;-62
2023/06/13 23:05:12;;;;;;;6.03;3.28;;;;;;;;;;8324677;28;20043;-62
2023/06/13 23:09:12;;;;;;;3.63;2.95;;;;;;;;;;8322867;28;20025;-61
2023/06/13 23:13:13;;;;;;;3.60;2.77;;;;;;;;;;8323255;28;20029;-62
2023/06/13 23:17:14;;;;;;;5.40;2.92;;;;;;;;;;8323270;28;20919;-62
2023/06/13 23:21:15;;;;;;;3.70;2.90;;;;;;;;;;8325113;28;20110;-62
2023/06/13 23:25:21;;;;;;;3.35;2.75;;;;;;;;;;8323257;28;20148;-62
2023/06/13 23:29:21;;;;;;;3.17;2.65;;;;;;;;;;8319863;28;20017;-62
2023/06/13 23:33:22;;;;;;;9.35;3.10;;;;;;;;;;8324466;28;20033;-62
2023/06/13 23:37:23;;;;;;;5.72;3.20;;;;;;;;;;8323276;28;20025;-62
2023/06/13 23:41:23;;;;;;;5.57;3.33;;;;;;;;;;8324102;28;20020;-62
2023/06/13 23:45:23;;;;;;;3.55;3.25;;;;;;;;;;8323748;28;22644;-62
2023/06/13 23:49:24;;;;;;;5.05;3.05;;;;;;;;;;8324614;28;20029;-61
2023/06/13 23:53:24;;;;;;;5.18;2.63;;;;;;;;;;8323687;28;21050;-61
2023/06/13 23:57:24;;;;;;;3.70;2.90;;;;;;;;;;8320452;28;20104;-62
